createdAt,value
2023-04-13T00:01:12.016Z,99585.38
2023-04-13T00:03:41.865Z,99587.22
2023-04-13T00:06:11.120Z,99582.69
2023-04-13T00:08:43.026Z,99581.88
2023-04-13T00:11:11.392Z,99565.13
2023-04-13T00:13:43.096Z,99577.34
2023-04-13T00:16:13.289Z,99576.50
2023-04-13T00:18:42.938Z,99573.00
2023-04-13T00:21:11.139Z,99580.16
2023-04-13T00:23:39.685Z,99569.47
2023-04-13T00:26:08.068Z,99562.44
2023-04-13T00:28:36.141Z,99558.75
2023-04-13T00:31:04.290Z,99553.41
2023-04-13T00:33:32.397Z,99561.59
2023-04-13T00:36:02.775Z,99553.41
2023-04-13T00:38:30.963Z,99551.72
2023-04-13T00:40:59.089Z,99553.41
2023-04-13T00:43:27.284Z,99549.91
2023-04-13T00:45:55.508Z,99553.41
2023-04-13T00:48:23.713Z,99550.06
2023-04-13T00:50:51.933Z,99559.75
2023-04-13T00:53:21.503Z,99546.38
2023-04-13T00:55:50.110Z,99543.69
2023-04-13T00:58:18.287Z,99546.38
2023-04-13T01:00:46.383Z,99546.38
2023-04-13T01:03:14.707Z,99546.38
2023-04-13T01:05:51.823Z,99547.22
2023-04-13T01:08:28.775Z,99541.69
2023-04-13T01:11:04.412Z,99542.69
2023-04-13T01:13:40.488Z,99540.00
2023-04-13T01:16:16.103Z,99540.00
2023-04-13T01:18:49.122Z,99541.00
2023-04-13T01:21:21.798Z,99541.00
2023-04-13T01:24:00.783Z,99535.66
2023-04-13T01:26:39.244Z,99535.66
2023-04-13T01:29:10.240Z,99530.31
2023-04-13T01:31:39.036Z,99513.03
2023-04-13T01:34:07.350Z,99526.13
2023-04-13T01:36:35.735Z,99516.22
2023-04-13T01:39:04.446Z,99524.94
2023-04-13T01:41:32.524Z,99516.22
2023-04-13T01:44:00.942Z,99512.56
2023-04-13T01:46:35.243Z,99517.94
2023-04-13T01:49:05.012Z,99400.00
2023-04-13T01:51:35.583Z,99515.91
2023-04-13T01:54:11.284Z,99496.50
2023-04-13T01:56:40.780Z,99496.50
2023-04-13T01:59:09.078Z,99496.50
2023-04-13T02:01:41.807Z,99493.81
2023-04-13T02:04:10.280Z,99493.81
2023-04-13T02:06:38.724Z,99491.16
2023-04-13T02:09:07.007Z,99487.78
2023-04-13T02:11:36.505Z,99474.38
2023-04-13T02:14:04.959Z,99475.75
2023-04-13T02:16:33.156Z,99482.09
2023-04-13T02:19:02.727Z,99480.44
2023-04-13T02:21:30.886Z,99471.38
2023-04-13T02:23:59.046Z,99475.09
2023-04-13T02:26:27.615Z,99475.09
2023-04-13T02:28:56.260Z,99476.75
2023-04-13T02:31:24.271Z,99487.47
2023-04-13T02:33:52.416Z,99475.91
2023-04-13T02:36:22.612Z,99470.53
2023-04-13T02:38:50.700Z,99462.50
2023-04-13T02:41:22.921Z,99459.69
2023-04-13T02:43:52.465Z,99467.03
2023-04-13T02:46:20.726Z,99461.00
2023-04-13T02:48:48.788Z,99452.81
2023-04-13T02:51:16.806Z,99450.31
2023-04-13T02:53:46.258Z,99469.72
2023-04-13T02:56:14.353Z,99461.69
2023-04-13T02:58:42.496Z,99457.31
2023-04-13T03:01:10.564Z,99459.00
2023-04-13T03:03:38.833Z,99466.03
2023-04-13T03:06:07.473Z,99453.66
2023-04-13T03:08:35.793Z,99453.66
2023-04-13T03:11:06.353Z,99447.63
2023-04-13T03:13:34.371Z,99446.59
2023-04-13T03:16:02.811Z,99459.00
2023-04-13T03:18:31.553Z,99455.50
2023-04-13T03:20:59.607Z,99456.34
2023-04-13T03:23:27.681Z,99451.31
2023-04-13T03:25:55.752Z,99460.69
2023-04-13T03:28:25.168Z,99442.09
2023-04-13T03:30:53.273Z,99450.97
2023-04-13T03:33:21.421Z,99448.31
2023-04-13T03:35:49.597Z,99451.78
2023-04-13T03:38:17.656Z,99437.59
2023-04-13T03:40:45.883Z,99432.22
2023-04-13T03:43:13.995Z,99434.91
2023-04-13T03:45:43.447Z,99429.56
2023-04-13T03:48:11.507Z,99425.19
2023-04-13T03:50:39.528Z,99432.22
2023-04-13T03:53:07.618Z,99425.19
2023-04-13T03:55:35.662Z,99429.56
2023-04-13T03:58:03.725Z,99421.53
2023-04-13T04:00:32.049Z,99423.19
2023-04-13T04:03:02.063Z,99420.50
2023-04-13T04:05:30.413Z,99419.66
2023-04-13T04:07:58.429Z,99428.53
2023-04-13T04:10:27.400Z,99429.38
2023-04-13T04:12:56.990Z,99432.88
2023-04-13T04:15:25.019Z,99433.91
2023-04-13T04:17:53.081Z,99424.03
2023-04-13T04:20:22.624Z,99438.25
2023-04-13T04:22:53.272Z,99430.22
2023-04-13T04:25:23.061Z,99428.53
2023-04-13T04:27:51.162Z,99425.88
2023-04-13T04:30:22.530Z,99428.53
2023-04-13T04:32:53.104Z,99429.38
2023-04-13T04:35:26.254Z,99428.53
2023-04-13T04:37:55.357Z,99423.19
2023-04-13T04:40:23.571Z,99412.47
2023-04-13T04:42:51.590Z,99417.84
2023-04-13T04:45:20.832Z,99417.66
2023-04-13T04:47:50.370Z,99414.81
2023-04-13T04:50:18.547Z,99416.31
2023-04-13T04:52:47.973Z,99410.97
2023-04-13T04:55:16.007Z,99414.81
2023-04-13T04:57:44.416Z,99404.75
2023-04-13T05:00:15.721Z,99407.44
2023-04-13T05:02:44.414Z,99404.28
2023-04-13T05:05:12.919Z,99403.09
2023-04-13T05:07:40.972Z,99411.28
2023-04-13T05:10:11.146Z,99411.28
2023-04-13T05:12:39.232Z,99417.50
2023-04-13T05:15:09.007Z,99395.22
2023-04-13T05:17:37.505Z,99383.69
2023-04-13T05:20:07.355Z,99391.06
2023-04-13T05:22:35.416Z,99392.72
2023-04-13T05:25:04.072Z,99380.34
2023-04-13T05:27:33.650Z,99382.34
2023-04-13T05:30:01.704Z,99375.00
2023-04-13T05:32:29.784Z,99392.06
2023-04-13T05:34:57.855Z,99388.53
2023-04-13T05:37:26.128Z,99394.75
2023-04-13T05:39:54.315Z,99398.41
2023-04-13T05:42:22.368Z,99393.91
2023-04-13T05:44:52.019Z,99405.47
2023-04-13T05:47:22.444Z,99403.75
2023-04-13T05:49:50.844Z,99400.09
2023-04-13T05:52:18.875Z,99412.47
2023-04-13T05:54:46.900Z,99426.88
2023-04-13T05:57:14.951Z,99422.50
2023-04-13T05:59:42.981Z,99440.28
2023-04-13T06:02:12.500Z,99426.88
2023-04-13T06:04:41.925Z,99427.22
2023-04-13T06:07:10.130Z,99430.53
2023-04-13T06:09:38.472Z,99426.88
2023-04-13T06:12:06.832Z,99437.59
2023-04-13T06:14:34.943Z,99428.03
2023-04-13T06:17:03.376Z,99430.53
2023-04-13T06:19:32.929Z,99422.50
2023-04-13T06:22:00.973Z,99418.16
2023-04-13T06:24:28.991Z,99421.53
2023-04-13T06:26:56.995Z,99426.03
2023-04-13T06:29:24.992Z,99404.75
2023-04-13T06:31:52.993Z,99414.47
2023-04-13T06:34:21.066Z,99419.81
2023-04-13T06:36:50.497Z,99406.44
2023-04-13T06:39:18.495Z,99396.75
2023-04-13T06:41:47.931Z,99402.94
2023-04-13T06:44:16.208Z,99398.25
2023-04-13T06:46:44.236Z,99327.31
2023-04-13T06:49:13.304Z,99386.03
2023-04-13T06:51:41.305Z,99394.22
2023-04-13T06:54:10.725Z,99396.75
2023-04-13T06:56:38.720Z,99400.44
2023-04-13T06:59:07.292Z,99392.91
2023-04-13T07:01:35.768Z,99407.44
2023-04-13T07:04:04.324Z,99403.75
2023-04-13T07:06:32.434Z,99400.44
2023-04-13T07:09:00.767Z,99403.75
2023-04-13T07:11:30.461Z,99389.72
2023-04-13T07:13:58.475Z,99419.81
2023-04-13T07:16:26.621Z,99412.63
2023-04-13T07:18:54.635Z,99414.13
2023-04-13T07:21:22.737Z,99446.59
2023-04-13T07:23:50.738Z,99451.16
2023-04-13T07:26:18.753Z,99444.94
2023-04-13T07:28:48.124Z,99443.94
2023-04-13T07:31:16.336Z,99390.34
2023-04-13T07:33:44.391Z,99456.66
2023-04-13T07:36:12.696Z,99455.66
2023-04-13T07:38:40.793Z,99456.50
2023-04-13T07:41:08.804Z,99462.66
2023-04-13T07:43:37.378Z,99473.38
2023-04-13T07:46:12.776Z,99473.38
2023-04-13T07:48:44.324Z,99482.44
2023-04-13T07:51:18.058Z,99485.13
2023-04-13T07:53:46.701Z,99492.47
2023-04-13T07:56:14.896Z,99389.56
2023-04-13T07:58:43.232Z,99517.25
2023-04-13T08:01:13.190Z,99515.56
2023-04-13T08:03:41.478Z,99520.78
2023-04-13T08:06:10.488Z,99521.91
2023-04-13T08:08:38.605Z,99522.59
2023-04-13T08:11:07.839Z,99530.63
2023-04-13T08:13:36.472Z,99536.84
2023-04-13T08:16:06.540Z,99530.63
2023-04-13T08:18:36.199Z,99534.31
2023-04-13T08:21:11.005Z,99538.66
2023-04-13T08:23:40.891Z,99543.00
2023-04-13T08:26:09.262Z,99545.69
2023-04-13T08:28:37.234Z,99552.06
2023-04-13T08:31:05.411Z,99557.41
2023-04-13T08:33:33.531Z,99554.03
2023-04-13T08:36:03.141Z,99552.06
2023-04-13T08:38:31.442Z,99552.91
2023-04-13T08:41:01.710Z,99559.06
2023-04-13T08:43:29.756Z,99573.47
2023-04-13T08:45:57.988Z,99575.16
2023-04-13T08:48:29.115Z,99577.81
2023-04-13T08:51:05.544Z,99571.81
2023-04-13T08:53:33.667Z,99577.81
2023-04-13T08:56:03.169Z,99588.53
2023-04-13T08:58:35.328Z,99583.19
2023-04-13T09:01:04.759Z,99586.88
2023-04-13T09:03:37.953Z,99589.53
2023-04-13T09:06:12.550Z,99595.75
2023-04-13T09:08:45.002Z,99589.53
2023-04-13T09:11:13.673Z,99600.25
2023-04-13T09:13:41.644Z,99602.94
2023-04-13T09:16:09.897Z,99615.31
2023-04-13T09:18:38.127Z,99605.63
2023-04-13T09:21:08.202Z,99612.63
2023-04-13T09:23:36.309Z,99623.34
2023-04-13T09:26:08.182Z,99616.31
2023-04-13T09:28:47.572Z,99622.69
2023-04-13T09:31:15.868Z,99618.31
2023-04-13T09:33:47.631Z,99630.72
2023-04-13T09:36:18.565Z,99645.09
2023-04-13T09:38:53.666Z,99637.75
2023-04-13T09:41:34.987Z,99650.44
2023-04-13T09:44:04.622Z,99645.94
2023-04-13T09:46:33.383Z,99655.81
2023-04-13T09:49:03.447Z,99657.50
2023-04-13T09:51:42.479Z,99659.50
2023-04-13T09:54:12.218Z,99680.59
2023-04-13T09:56:48.304Z,99675.25
2023-04-13T09:59:17.440Z,99688.63
2023-04-13T10:01:45.949Z,99676.91
2023-04-13T10:04:14.318Z,99680.75
2023-04-13T10:06:44.980Z,99681.44
2023-04-13T10:09:13.144Z,99680.59
2023-04-13T10:11:46.390Z,99675.25
2023-04-13T10:14:17.659Z,99679.91
2023-04-13T10:17:13.072Z,99681.44
2023-04-13T10:19:44.891Z,99691.31
2023-04-13T10:22:15.656Z,99685.94
2023-04-13T10:24:43.930Z,99695.81
2023-04-13T10:27:15.236Z,99712.72
2023-04-13T10:29:43.424Z,99703.03
2023-04-13T10:32:22.450Z,99700.34
2023-04-13T10:34:51.293Z,99709.38
2023-04-13T10:37:23.316Z,99710.22
2023-04-13T10:40:02.531Z,99711.06
2023-04-13T10:42:51.203Z,99713.75
2023-04-13T10:45:22.278Z,99718.09
2023-04-13T10:47:50.562Z,99725.13
2023-04-13T10:50:22.452Z,99725.13
2023-04-13T10:53:03.093Z,99725.13
2023-04-13T10:55:31.725Z,99731.47
2023-04-13T10:58:00.903Z,99739.50
2023-04-13T11:00:45.742Z,99578.66
2023-04-13T11:03:16.939Z,99741.50
2023-04-13T11:05:46.177Z,99746.53
2023-04-13T11:08:20.832Z,99757.25
2023-04-13T11:10:53.659Z,99764.31
2023-04-13T11:13:22.135Z,99751.88
2023-04-13T11:15:51.927Z,99751.88
2023-04-13T11:18:26.896Z,99675.28
2023-04-13T11:20:55.638Z,99751.06
2023-04-13T11:23:25.454Z,99762.59
2023-04-13T11:25:55.230Z,99769.66
2023-04-13T11:28:24.244Z,99757.25
2023-04-13T11:30:56.782Z,99762.59
2023-04-13T11:33:26.807Z,99784.03
2023-04-13T11:35:56.193Z,99775.03
2023-04-13T11:38:25.987Z,99779.53
2023-04-13T11:41:04.689Z,99781.81
2023-04-13T11:43:43.150Z,99792.91
2023-04-13T11:46:13.809Z,99796.44
2023-04-13T11:48:42.319Z,99793.06
2023-04-13T11:51:11.575Z,99802.78
2023-04-13T11:53:41.830Z,99707.69
2023-04-13T11:56:10.078Z,99800.09
2023-04-13T11:58:40.559Z,99810.81
2023-04-13T12:01:14.311Z,99816.16
2023-04-13T12:03:59.230Z,99810.81
2023-04-13T12:06:35.295Z,99804.63
2023-04-13T12:09:10.780Z,99807.47
2023-04-13T12:11:46.585Z,99814.50
2023-04-13T12:14:49.664Z,99814.50
2023-04-13T12:17:37.628Z,99810.16
2023-04-13T12:20:04.162Z,99809.13
2023-04-13T12:22:51.487Z,99804.63
2023-04-13T12:25:25.848Z,99814.50
2023-04-13T12:27:55.003Z,99823.53
2023-04-13T12:30:24.190Z,99821.84
2023-04-13T12:32:53.982Z,99824.50
2023-04-13T12:35:22.351Z,99830.88
2023-04-13T12:37:50.380Z,99839.59
2023-04-13T12:40:19.386Z,99828.91
2023-04-13T12:42:49.579Z,99841.28
2023-04-13T12:45:17.804Z,99831.56
2023-04-13T12:47:45.846Z,99833.25
2023-04-13T12:50:14.245Z,99836.06
2023-04-13T12:52:44.499Z,99839.59
2023-04-13T12:55:12.609Z,99843.94
2023-04-13T12:57:40.804Z,99844.97
2023-04-13T13:00:12.544Z,99844.97
2023-04-13T13:02:40.937Z,99858.34
2023-04-13T13:05:09.814Z,99855.66
2023-04-13T13:07:37.879Z,99850.31
2023-04-13T13:10:15.184Z,99841.28
2023-04-13T13:12:54.350Z,99859.00
2023-04-13T13:15:24.004Z,99848.31
2023-04-13T13:17:52.018Z,99859.00
2023-04-13T13:20:20.057Z,99864.38
2023-04-13T13:22:48.308Z,99868.06
2023-04-13T13:25:16.404Z,99862.69
2023-04-13T13:30:15.632Z,99869.72
2023-04-13T13:32:45.163Z,99869.72
2023-04-13T13:35:14.116Z,99874.25
2023-04-13T13:37:42.070Z,99871.44
2023-04-13T13:40:13.131Z,99871.44
2023-04-13T13:42:51.230Z,99784.09
2023-04-13T13:45:20.207Z,99865.22
2023-04-13T13:47:52.652Z,99864.38
2023-04-13T13:50:21.763Z,99861.03
2023-04-13T13:53:02.166Z,99870.56
2023-04-13T13:55:31.758Z,99855.66
2023-04-13T13:57:59.861Z,99873.41
2023-04-13T14:00:27.841Z,99868.06
2023-04-13T14:02:57.377Z,99863.56
2023-04-13T14:05:25.548Z,99873.41
2023-04-13T14:07:53.546Z,99880.44
2023-04-13T14:10:21.655Z,99891.16
2023-04-13T14:12:50.672Z,99891.16
2023-04-13T14:15:18.927Z,99898.22
2023-04-13T14:18:02.137Z,99899.03
2023-04-13T14:20:39.097Z,99878.34
2023-04-13T14:23:09.133Z,99894.00
2023-04-13T14:25:37.735Z,99896.50
2023-04-13T14:28:06.311Z,99891.16
2023-04-13T14:30:34.588Z,99896.81
2023-04-13T14:33:02.713Z,99898.22
2023-04-13T14:35:30.813Z,99901.03
2023-04-13T14:38:00.436Z,99904.53
2023-04-13T14:40:29.141Z,99898.38
2023-04-13T14:42:57.096Z,99892.84
2023-04-13T14:45:26.636Z,99896.50
2023-04-13T14:47:54.988Z,99899.19
2023-04-13T14:50:23.244Z,99902.72
2023-04-13T14:52:52.381Z,99921.63
2023-04-13T14:55:22.871Z,99911.91
2023-04-13T14:57:51.272Z,99914.59
2023-04-13T15:00:22.289Z,99923.28
2023-04-13T15:02:52.665Z,99924.13
2023-04-13T15:05:21.806Z,99919.63
2023-04-13T15:07:51.009Z,99927.66
2023-04-13T15:10:19.534Z,99921.31
2023-04-13T15:12:49.113Z,99928.66
2023-04-13T15:15:17.387Z,99932.31
2023-04-13T15:17:45.629Z,99934.00
2023-04-13T15:20:13.770Z,99928.66
2023-04-13T15:22:41.750Z,99944.72
2023-04-13T15:25:10.501Z,99942.03
2023-04-13T15:27:38.489Z,99939.34
2023-04-13T15:30:10.265Z,99944.72
2023-04-13T15:32:38.281Z,99948.41
2023-04-13T15:35:06.670Z,99944.72
2023-04-13T15:37:34.660Z,99934.00
2023-04-13T15:40:04.842Z,99943.75
2023-04-13T15:42:32.850Z,99935.72
2023-04-13T15:45:01.233Z,99934.00
2023-04-13T15:47:30.882Z,99930.34
2023-04-13T15:49:58.881Z,99947.25
2023-04-13T15:52:26.842Z,99943.75
2023-04-13T15:54:55.603Z,99944.72
2023-04-13T15:57:23.594Z,99955.44
2023-04-13T15:59:51.569Z,99962.50
2023-04-13T16:02:19.643Z,99962.50
2023-04-13T16:04:49.495Z,99876.66
2023-04-13T16:07:17.668Z,99962.50
2023-04-13T16:09:45.838Z,99973.50
2023-04-13T16:12:13.826Z,99967.84
2023-04-13T16:14:45.216Z,99965.47
2023-04-13T16:17:14.999Z,99980.53
2023-04-13T16:19:47.061Z,99964.47
2023-04-13T16:22:17.993Z,99868.19
2023-04-13T16:24:46.016Z,99976.84
2023-04-13T16:27:14.582Z,99973.19
2023-04-13T16:29:43.490Z,99975.19
2023-04-13T16:32:11.719Z,99980.22
2023-04-13T16:34:39.723Z,99982.22
2023-04-13T16:37:07.708Z,99988.41
2023-04-13T16:39:38.072Z,99989.28
2023-04-13T16:42:06.294Z,99993.78
2023-04-13T16:44:34.368Z,99995.59
2023-04-13T16:47:02.360Z,99998.28
2023-04-13T16:49:30.362Z,100005.34
2023-04-13T16:51:58.368Z,99999.97
2023-04-13T16:54:26.444Z,100004.50
2023-04-13T16:56:55.870Z,100021.41
2023-04-13T16:59:23.932Z,100013.38
2023-04-13T17:01:51.966Z,100025.91
2023-04-13T17:04:20.011Z,100028.75
2023-04-13T17:06:48.478Z,100032.13
2023-04-13T17:09:16.471Z,100037.47
2023-04-13T17:11:44.496Z,100029.44
2023-04-13T17:14:13.909Z,100032.13
2023-04-13T17:16:41.926Z,100040.16
2023-04-13T17:19:09.969Z,100026.78
2023-04-13T17:21:38.962Z,100034.09
2023-04-13T17:24:07.700Z,100048.19
2023-04-13T17:26:35.669Z,100053.56
2023-04-13T17:29:03.652Z,100062.56
2023-04-13T17:31:33.180Z,100073.97
2023-04-13T17:34:01.219Z,100081.16
2023-04-13T17:36:29.239Z,100092.72
2023-04-13T17:38:57.566Z,100100.75
2023-04-13T17:41:26.101Z,100113.28
2023-04-13T17:43:54.066Z,100112.47
2023-04-13T17:46:22.168Z,100117.84
2023-04-13T17:48:51.624Z,100116.13
2023-04-13T17:51:19.608Z,100125.16
2023-04-13T17:53:47.635Z,100116.44
2023-04-13T17:56:16.628Z,100132.78
2023-04-13T17:58:45.142Z,100132.78
2023-04-13T18:01:13.542Z,100131.41
2023-04-13T18:03:41.783Z,100141.53
2023-04-13T18:06:11.267Z,100143.22
2023-04-13T18:08:39.259Z,100148.56
2023-04-13T18:11:07.267Z,100150.28
2023-04-13T18:13:35.508Z,100152.25
2023-04-13T18:16:04.851Z,100166.34
2023-04-13T18:18:32.913Z,100168.00
2023-04-13T18:21:00.908Z,100173.38
2023-04-13T18:23:30.287Z,100173.38
2023-04-13T18:25:58.237Z,100175.34
2023-04-13T18:28:26.432Z,100178.72
2023-04-13T18:30:54.399Z,100190.28
2023-04-13T18:33:22.622Z,100191.41
2023-04-13T18:35:50.593Z,100189.44
2023-04-13T18:38:18.598Z,100189.44
2023-04-13T18:40:49.294Z,100196.47
2023-04-13T18:43:17.374Z,100198.47
2023-04-13T18:45:45.468Z,100212.53
2023-04-13T18:48:13.593Z,100216.22
2023-04-13T18:50:41.640Z,100218.06
2023-04-13T18:53:09.631Z,100221.59
2023-04-13T18:55:37.669Z,100219.91
2023-04-13T18:58:07.070Z,100225.25
2023-04-13T19:00:35.142Z,100237.66
2023-04-13T19:03:03.251Z,100237.66
2023-04-13T19:05:33.453Z,100241.34
2023-04-13T19:08:01.735Z,100237.94
2023-04-13T19:10:31.546Z,100243.00
2023-04-13T19:12:59.805Z,100252.03
2023-04-13T19:15:30.764Z,100236.56
2023-04-13T19:17:59.430Z,100241.63
2023-04-13T19:20:27.447Z,100241.34
2023-04-13T19:22:55.484Z,100259.06
2023-04-13T19:25:23.766Z,100246.69
2023-04-13T19:27:51.885Z,100254.72
2023-04-13T19:30:20.122Z,100252.03
2023-04-13T19:32:50.703Z,100253.72
2023-04-13T19:35:21.568Z,100236.28
2023-04-13T19:37:49.879Z,100148.53
2023-04-13T19:40:17.972Z,100255.69
2023-04-13T19:42:47.151Z,100253.72
2023-04-13T19:45:16.387Z,100266.13
2023-04-13T19:47:44.542Z,100258.06
2023-04-13T19:50:15.910Z,100260.47
2023-04-13T19:52:47.120Z,100241.38
2023-04-13T19:55:15.592Z,100278.81
2023-04-13T19:57:43.706Z,100275.28
2023-04-13T20:00:24.218Z,100290.22
2023-04-13T20:02:53.165Z,100292.06
2023-04-13T20:05:22.978Z,100295.56
2023-04-13T20:07:51.014Z,100298.25
2023-04-13T20:10:19.255Z,100305.31
2023-04-13T20:12:47.337Z,100310.38
2023-04-13T20:15:15.490Z,100313.75
2023-04-13T20:17:43.519Z,100310.06
2023-04-13T20:20:12.129Z,100303.88
2023-04-13T20:22:41.566Z,100305.72
2023-04-13T20:25:11.074Z,100308.09
2023-04-13T20:27:41.886Z,100309.78
2023-04-13T20:30:11.038Z,100307.09
2023-04-13T20:32:39.280Z,100243.94
2023-04-13T20:35:08.151Z,100308.66
2023-04-13T20:37:36.278Z,100311.19
2023-04-13T20:40:07.136Z,100309.19
2023-04-13T20:42:35.268Z,100314.56
2023-04-13T20:45:04.520Z,100309.19
2023-04-13T20:47:32.591Z,100306.38
2023-04-13T20:50:00.936Z,100305.53
2023-04-13T20:52:29.994Z,100312.47
2023-04-13T20:54:58.403Z,100307.97
2023-04-13T20:57:27.831Z,100322.19
2023-04-13T20:59:55.979Z,100314.41
2023-04-13T21:02:24.167Z,100310.91
2023-04-13T21:04:53.951Z,100320.63
2023-04-13T21:07:22.847Z,100319.34
2023-04-13T21:09:50.900Z,100326.56
2023-04-13T21:12:19.103Z,100324.72
2023-04-13T21:14:49.246Z,100337.09
2023-04-13T21:17:17.227Z,100332.88
2023-04-13T21:19:45.315Z,100336.56
2023-04-13T21:22:13.312Z,100340.22
2023-04-13T21:24:41.526Z,100339.53
2023-04-13T21:27:09.610Z,100345.03
2023-04-13T21:29:37.632Z,100341.09
2023-04-13T21:32:07.286Z,100344.47
2023-04-13T21:34:35.557Z,100345.63
2023-04-13T21:37:03.609Z,100343.88
2023-04-13T21:39:31.877Z,100172.78
2023-04-13T21:41:59.845Z,100350.38
2023-04-13T21:44:30.074Z,100348.72
2023-04-13T21:46:58.552Z,100363.06
2023-04-13T21:49:28.048Z,100363.06
2023-04-13T21:51:56.131Z,100361.69
2023-04-13T21:54:24.204Z,100361.53
2023-04-13T21:56:52.206Z,100362.53
2023-04-13T21:59:20.373Z,100367.88
2023-04-13T22:01:48.524Z,100359.16
2023-04-13T22:04:16.651Z,100365.34
2023-04-13T22:06:46.144Z,100370.72
2023-04-13T22:09:14.153Z,100374.34
2023-04-13T22:11:42.146Z,100385.06
2023-04-13T22:14:10.116Z,100385.06
2023-04-13T22:16:38.094Z,100395.78
2023-04-13T22:19:06.145Z,100388.75
2023-04-13T22:21:37.079Z,100382.41
2023-04-13T22:24:06.825Z,100380.72
2023-04-13T22:26:34.816Z,100401.28
2023-04-13T22:29:03.241Z,100410.19
2023-04-13T22:31:31.384Z,100414.53
2023-04-13T22:33:59.364Z,100415.53
2023-04-13T22:36:27.428Z,100417.22
2023-04-13T22:38:55.619Z,100421.91
2023-04-13T22:41:25.009Z,100420.22
2023-04-13T22:43:52.979Z,100426.41
2023-04-13T22:46:20.996Z,100424.56
2023-04-13T22:48:49.348Z,100429.06
2023-04-13T22:51:17.311Z,100425.56
2023-04-13T22:53:45.384Z,100432.75
2023-04-13T22:56:13.355Z,100439.78
2023-04-13T22:58:42.877Z,100437.25
2023-04-13T23:03:40.124Z,100421.75
2023-04-13T23:06:08.549Z,100438.25
2023-04-13T23:08:36.556Z,100439.78
2023-04-13T23:11:11.158Z,100444.31
2023-04-13T23:13:40.096Z,100452.38
2023-04-13T23:16:09.601Z,100444.31
2023-04-13T23:18:37.600Z,100455.03
2023-04-13T23:21:12.119Z,100439.53
2023-04-13T23:23:40.537Z,100414.44
2023-04-13T23:26:08.568Z,100458.69
2023-04-13T23:28:36.576Z,100455.03
2023-04-13T23:31:05.616Z,100453.31
2023-04-13T23:33:35.685Z,100458.69
2023-04-13T23:36:03.896Z,100457.00
2023-04-13T23:38:33.143Z,100464.03
2023-04-13T23:41:01.129Z,100461.38
2023-04-13T23:43:29.257Z,100458.69
2023-04-13T23:45:58.856Z,100473.34
2023-04-13T23:48:27.361Z,100469.41
2023-04-13T23:50:57.352Z,100474.75
2023-04-13T23:53:25.327Z,100474.75
2023-04-13T23:55:53.318Z,100478.44
2023-04-13T23:58:21.332Z,100479.28
